Time;durP1;ratioP1;P1;durP2;ratioP2;P2;SDS_P1;SDS_P2;PMS_P1;PMS_P2;Temp;Humidity;BMP_temperature;BMP_pressure;BME280_temperature;BME280_humidity;BME280_pressure;Samples;Min_cycle;Max_cycle;Signal;HPM_P1;HPM_P2
2023/01/20 00:00:49;;;;;;;36.22;17.15;;;1.40;99.90;;;;;;4695239;28;9999855;-64
2023/01/20 00:03:15;;;;;;;32.55;16.98;;;1.30;99.90;;;;;;5040380;28;20452;-64
2023/01/20 00:05:50;;;;;;;38.53;18.02;;;1.30;99.90;;;;;;5030614;28;20554;-64
2023/01/20 00:08:15;;;;;;;35.90;17.38;;;1.40;99.90;;;;;;5031937;28;20623;-65
2023/01/20 00:10:41;;;;;;;33.75;17.02;;;1.40;99.90;;;;;;5041492;28;20120;-61
2023/01/20 00:13:06;;;;;;;32.05;16.75;;;1.40;99.90;;;;;;5031642;28;20018;-64
2023/01/20 00:15:32;;;;;;;32.35;17.08;;;1.40;99.90;;;;;;5031662;28;20022;-63
2023/01/20 00:17:58;;;;;;;30.73;17.77;;;1.30;99.90;;;;;;5013567;28;20047;-66
2023/01/20 00:20:23;;;;;;;31.35;16.75;;;2.00;99.90;;;;;;5032361;28;20038;-63
2023/01/20 00:22:49;;;;;;;39.83;17.45;;;1.40;99.90;;;;;;5051469;28;20029;-62
2023/01/20 00:25:15;;;;;;;34.42;16.70;;;1.30;99.90;;;;;;5038052;28;20029;-64
2023/01/20 00:27:40;;;;;;;34.83;18.00;;;1.40;99.90;;;;;;5049044;28;20508;-62
2023/01/20 00:30:06;;;;;;;39.05;17.17;;;1.40;99.90;;;;;;5047329;28;20036;-63
2023/01/20 00:32:44;;;;;;;28.90;15.65;;;1.40;99.90;;;;;;5031931;28;20545;-64
2023/01/20 00:35:10;;;;;;;43.10;16.92;;;1.40;99.90;;;;;;5040482;28;20025;-64
2023/01/20 00:37:36;;;;;;;38.25;15.73;;;1.40;99.90;;;;;;5066384;28;20053;-65
2023/01/20 00:40:03;;;;;;;32.35;17.02;;;1.30;99.90;;;;;;5065977;28;20029;-63
2023/01/20 00:42:29;;;;;;;30.88;15.55;;;1.40;99.90;;;;;;5050660;28;20075;-65
2023/01/20 00:44:54;;;;;;;33.63;16.27;;;1.40;99.90;;;;;;5051219;28;20447;-63
2023/01/20 00:47:20;;;;;;;32.13;16.98;;;1.40;99.90;;;;;;5051235;28;20028;-64
2023/01/20 00:49:46;;;;;;;43.50;17.00;;;1.70;99.90;;;;;;5051090;28;20036;-64
2023/01/20 00:52:12;;;;;;;33.40;16.95;;;1.40;99.90;;;;;;5050918;28;20025;-67
2023/01/20 00:54:38;;;;;;;45.78;17.23;;;1.60;99.90;;;;;;5051284;28;20397;-62
2023/01/20 00:57:04;;;;;;;45.92;17.42;;;1.30;99.90;;;;;;5050872;28;20021;-61
2023/01/20 00:59:29;;;;;;;46.47;18.00;;;1.40;99.90;;;;;;5051002;28;20039;-67
2023/01/20 01:01:55;;;;;;;37.78;16.10;;;1.30;99.90;;;;;;5051092;28;20029;-63
2023/01/20 01:04:21;;;;;;;34.70;15.80;;;1.60;99.90;;;;;;5050699;28;20032;-63
2023/01/20 01:06:48;;;;;;;53.65;19.15;;;2.00;99.90;;;;;;5032965;28;20055;-65
2023/01/20 01:09:14;;;;;;;50.35;18.23;;;1.40;99.90;;;;;;5050865;28;20419;-66
2023/01/20 01:11:39;;;;;;;48.17;18.70;;;1.30;99.90;;;;;;5050977;28;20094;-64
2023/01/20 01:14:05;;;;;;;40.03;17.52;;;1.30;99.90;;;;;;5050249;28;20025;-64
2023/01/20 01:16:31;;;;;;;51.38;18.52;;;1.30;99.90;;;;;;5050934;28;20021;-65
2023/01/20 01:18:56;;;;;;;36.40;17.45;;;1.30;99.90;;;;;;5050532;28;20094;-66
2023/01/20 01:21:22;;;;;;;55.80;17.52;;;1.40;99.90;;;;;;5050790;28;20393;-63
2023/01/20 01:23:47;;;;;;;45.88;16.67;;;1.30;99.90;;;;;;5050745;28;20053;-63
2023/01/20 01:26:13;;;;;;;36.92;16.13;;;1.30;99.90;;;;;;5050603;28;20021;-66
2023/01/20 01:28:39;;;;;;;51.80;18.00;;;1.30;99.90;;;;;;5050464;28;20092;-66
2023/01/20 01:31:07;;;;;;;43.45;17.20;;;1.30;99.90;;;;;;5053376;28;20028;-66
2023/01/20 01:33:33;;;;;;;42.63;17.27;;;1.20;99.90;;;;;;5054906;28;20112;-62
2023/01/20 01:36:01;;;;;;;36.65;16.25;;;1.70;99.90;;;;;;5056414;28;20029;-63
2023/01/20 01:38:27;;;;;;;39.60;14.50;;;1.30;99.90;;;;;;5057026;28;20116;-62
2023/01/20 01:40:55;;;;;;;44.40;15.52;;;1.20;99.90;;;;;;5054903;28;20040;-64
2023/01/20 01:43:25;;;;;;;41.20;15.98;;;1.60;99.90;;;;;;5037814;28;20440;-63
2023/01/20 01:45:50;;;;;;;24.45;14.05;;;1.10;99.90;;;;;;5055611;28;20028;-60
2023/01/20 01:48:19;;;;;;;31.02;15.80;;;1.10;99.90;;;;;;5055879;28;20033;-65
2023/01/20 01:50:51;;;;;;;56.67;16.77;;;1.10;99.90;;;;;;5069833;28;20054;-62
2023/01/20 01:53:17;;;;;;;40.42;15.45;;;1.00;99.90;;;;;;5078082;28;20036;-63
2023/01/20 01:55:53;;;;;;;43.95;15.55;;;1.00;99.90;;;;;;5077464;28;20014;-62
2023/01/20 01:58:23;;;;;;;32.88;14.82;;;1.00;99.90;;;;;;5078620;28;20033;-61
2023/01/20 02:00:49;;;;;;;41.28;16.13;;;1.00;99.90;;;;;;5078445;28;20054;-64
2023/01/20 02:03:15;;;;;;;45.55;17.42;;;1.00;99.90;;;;;;5067451;28;20428;-60
2023/01/20 02:05:42;;;;;;;42.63;15.48;;;0.90;99.90;;;;;;5058613;28;20024;-65
2023/01/20 02:08:08;;;;;;;43.83;17.33;;;0.90;99.90;;;;;;5057532;28;20337;-64
2023/01/20 02:10:34;;;;;;;28.52;15.77;;;3.10;99.90;;;;;;5057933;28;20033;-65
2023/01/20 02:13:01;;;;;;;38.03;15.50;;;0.70;99.90;;;;;;5058351;28;20028;-65
2023/01/20 02:15:39;;;;;;;33.03;15.65;;;0.80;99.90;;;;;;5057538;28;20500;-63
2023/01/20 02:18:05;;;;;;;36.45;13.95;;;0.90;99.90;;;;;;5076662;22;20044;-63
2023/01/20 02:21:01;;;;;;;37.20;14.75;;;0.80;99.90;;;;;;5074196;28;20024;-63
2023/01/20 02:23:48;;;;;;;29.65;14.02;;;0.90;99.90;;;;;;5079103;28;20008;-63
2023/01/20 02:26:44;;;;;;;44.17;14.80;;;0.80;99.90;;;;;;5094189;28;20047;-63
2023/01/20 02:29:34;;;;;;;37.17;14.85;;;0.90;99.90;;;;;;5053854;28;20037;-63
2023/01/20 02:32:24;;;;;;;31.50;14.85;;;0.90;99.90;;;;;;5053945;28;20048;-64
2023/01/20 02:35:01;;;;;;;33.42;16.25;;;0.90;99.90;;;;;;5054041;28;20507;-64
2023/01/20 02:37:31;;;;;;;34.47;17.48;;;0.90;99.90;;;;;;5053727;28;20029;-64
2023/01/20 02:40:24;;;;;;;34.75;15.43;;;1.00;99.90;;;;;;5065350;28;20036;-63
2023/01/20 02:43:17;;;;;;;35.75;16.38;;;1.00;99.90;;;;;;5072405;28;20455;-64
2023/01/20 02:45:51;;;;;;;27.90;14.75;;;1.00;99.90;;;;;;5090228;28;20028;-64
2023/01/20 02:48:35;;;;;;;29.33;14.20;;;1.00;99.90;;;;;;5079362;28;20415;-65
2023/01/20 02:51:11;;;;;;;38.80;14.90;;;1.00;99.90;;;;;;5093881;28;20753;-64
2023/01/20 02:53:47;;;;;;;51.28;15.18;;;1.00;99.90;;;;;;5093406;28;20020;-65
2023/01/20 02:56:15;;;;;;;34.35;16.20;;;0.90;99.90;;;;;;5093701;28;20469;-64
2023/01/20 02:58:52;;;;;;;33.55;15.77;;;0.90;99.90;;;;;;5093428;28;20106;-65
2023/01/20 03:01:31;;;;;;;40.05;15.93;;;0.90;99.90;;;;;;5086086;28;20032;-65
2023/01/20 03:03:59;;;;;;;35.78;15.07;;;0.90;99.90;;;;;;5093406;28;20437;-64
2023/01/20 03:06:30;;;;;;;52.35;14.95;;;1.00;99.90;;;;;;5093457;28;20107;-64
2023/01/20 03:08:59;;;;;;;30.05;15.63;;;1.00;99.90;;;;;;5077498;28;20054;-64
2023/01/20 03:11:28;;;;;;;29.23;14.90;;;0.90;99.90;;;;;;5073179;28;20032;-64
2023/01/20 03:14:05;;;;;;;36.92;14.40;;;0.90;99.90;;;;;;5073050;28;20024;-64
2023/01/20 03:16:31;;;;;;;39.90;16.58;;;0.90;99.90;;;;;;5073201;28;20020;-64
2023/01/20 03:18:57;;;;;;;38.53;15.95;;;1.00;99.90;;;;;;5073071;28;20561;-62
2023/01/20 03:21:23;;;;;;;35.92;14.75;;;0.90;99.90;;;;;;5072996;28;20039;-64
2023/01/20 03:23:56;;;;;;;37.30;16.88;;;0.90;99.90;;;;;;5072678;28;20108;-64
2023/01/20 03:26:22;;;;;;;34.60;16.08;;;0.90;99.90;;;;;;5072974;28;20039;-64
2023/01/20 03:28:49;;;;;;;41.55;17.08;;;0.90;99.90;;;;;;5072527;28;20028;-64
2023/01/20 03:31:23;;;;;;;42.05;17.98;;;0.80;99.90;;;;;;5072851;28;20445;-63
2023/01/20 03:33:52;;;;;;;53.83;18.20;;;0.80;99.90;;;;;;5072006;28;20539;-63
2023/01/20 03:36:20;;;;;;;44.33;18.08;;;0.90;99.90;;;;;;5072720;28;20108;-64
2023/01/20 03:38:46;;;;;;;48.65;17.63;;;0.80;99.90;;;;;;5092649;28;20016;-64
2023/01/20 03:41:40;;;;;;;55.47;18.65;;;0.80;99.90;;;;;;5092724;28;20028;-63
2023/01/20 03:44:14;;;;;;;44.30;18.95;;;0.80;99.90;;;;;;5092869;28;20032;-62
2023/01/20 03:46:54;;;;;;;55.88;21.13;;;0.70;99.90;;;;;;5092826;28;20027;-64
2023/01/20 03:50:02;;;;;;;43.65;19.70;;;0.70;99.90;;;;;;5086997;28;20086;-64
2023/01/20 03:52:51;;;;;;;40.47;19.30;;;0.70;99.90;;;;;;5071475;28;20029;-63
2023/01/20 03:55:31;;;;;;;55.50;20.17;;;0.60;99.90;;;;;;5072388;28;20028;-64
2023/01/20 03:58:04;;;;;;;49.90;18.52;;;0.60;99.90;;;;;;5072694;28;20106;-59
2023/01/20 04:00:36;;;;;;;46.90;19.52;;;0.70;99.90;;;;;;5072250;28;20077;-64
2023/01/20 04:03:07;;;;;;;47.35;21.48;;;0.70;99.90;;;;;;5072281;28;20031;-64
2023/01/20 04:05:33;;;;;;;52.97;21.25;;;0.60;99.90;;;;;;5072403;28;20025;-63
2023/01/20 04:08:04;;;;;;;57.45;22.52;;;0.80;99.90;;;;;;5071593;28;20481;-62
2023/01/20 04:10:33;;;;;;;81.40;24.67;;;0.70;99.90;;;;;;5073201;28;20056;-64
2023/01/20 04:12:59;;;;;;;59.20;24.33;;;0.80;99.90;;;;;;5071742;28;20036;-64
2023/01/20 04:15:27;;;;;;;74.13;24.77;;;0.70;99.90;;;;;;5072119;28;20033;-62
2023/01/20 04:17:53;;;;;;;56.17;22.25;;;0.60;99.90;;;;;;5071673;28;20028;-63
2023/01/20 04:20:18;;;;;;;68.50;23.05;;;0.60;99.90;;;;;;5071921;28;20067;-64
2023/01/20 04:22:54;;;;;;;60.72;25.42;;;0.70;99.90;;;;;;5071005;28;20028;-62
2023/01/20 04:25:24;;;;;;;57.35;23.33;;;0.80;99.90;;;;;;5071642;28;20029;-60
2023/01/20 04:27:50;;;;;;;76.03;25.30;;;0.80;99.90;;;;;;5071338;28;20036;-64
2023/01/20 04:30:16;;;;;;;71.25;25.58;;;0.70;99.90;;;;;;5071556;28;20024;-62
2023/01/20 04:32:41;;;;;;;64.50;26.42;;;0.60;99.90;;;;;;5071399;28;20028;-63
2023/01/20 04:35:13;;;;;;;65.65;26.30;;;0.70;99.90;;;;;;5071421;28;20472;-64
2023/01/20 04:37:38;;;;;;;66.60;25.10;;;0.70;99.90;;;;;;5082694;28;20024;-63
2023/01/20 04:40:04;;;;;;;73.80;27.08;;;1.10;99.90;;;;;;5078117;28;20028;-64
2023/01/20 04:42:30;;;;;;;68.53;25.55;;;0.70;99.90;;;;;;5071108;28;20377;-62
2023/01/20 04:44:56;;;;;;;59.70;24.75;;;0.70;99.90;;;;;;5071209;28;20035;-64
2023/01/20 04:47:21;;;;;;;68.40;25.45;;;0.70;99.90;;;;;;5071233;28;20035;-64
2023/01/20 04:49:47;;;;;;;68.88;25.85;;;0.70;99.90;;;;;;5068479;28;20033;-63
2023/01/20 04:52:13;;;;;;;63.63;26.45;;;0.60;99.90;;;;;;5066632;28;20543;-64
2023/01/20 04:54:38;;;;;;;66.68;26.35;;;0.70;99.90;;;;;;5066106;28;20021;-64
2023/01/20 04:57:04;;;;;;;76.05;27.27;;;0.70;99.90;;;;;;5066136;28;20036;-60
2023/01/20 04:59:29;;;;;;;69.55;28.52;;;0.60;99.90;;;;;;5066303;28;20032;-64
2023/01/20 05:01:55;;;;;;;61.28;27.63;;;0.60;99.90;;;;;;5064615;28;20036;-65
2023/01/20 05:04:21;;;;;;;66.75;26.50;;;0.70;99.90;;;;;;5065703;28;20056;-62
2023/01/20 05:06:46;;;;;;;60.45;27.38;;;0.70;99.90;;;;;;5065629;28;20119;-64
2023/01/20 05:09:14;;;;;;;68.93;23.73;;;0.70;99.90;;;;;;5065813;28;20128;-62
2023/01/20 05:11:40;;;;;;;58.55;24.50;;;1.10;99.90;;;;;;5066430;28;20021;-65
2023/01/20 05:14:05;;;;;;;57.72;25.17;;;0.70;99.90;;;;;;5065148;28;20020;-63
2023/01/20 05:16:32;;;;;;;72.93;28.55;;;0.70;99.90;;;;;;5066259;28;20029;-62
2023/01/20 05:18:58;;;;;;;81.75;29.52;;;0.60;99.90;;;;;;5065605;28;20740;-65
2023/01/20 05:21:24;;;;;;;74.28;27.40;;;0.60;99.90;;;;;;5069480;28;20137;-65
2023/01/20 05:23:53;;;;;;;76.55;28.77;;;0.50;99.90;;;;;;5065870;28;20377;-59
2023/01/20 05:26:19;;;;;;;78.65;28.17;;;0.50;99.90;;;;;;5064453;28;20013;-65
2023/01/20 05:28:45;;;;;;;67.65;27.77;;;0.80;99.90;;;;;;5055479;28;20400;-64
2023/01/20 05:31:11;;;;;;;68.13;26.85;;;0.60;99.90;;;;;;5066161;28;20510;-64
2023/01/20 05:33:38;;;;;;;80.65;28.70;;;0.50;99.90;;;;;;5065196;28;20033;-64
2023/01/20 05:36:08;;;;;;;77.40;27.17;;;0.50;99.90;;;;;;5065496;28;20020;-61
2023/01/20 05:38:34;;;;;;;87.97;28.50;;;0.60;99.90;;;;;;5076653;28;20020;-65
2023/01/20 05:41:05;;;;;;;70.07;27.13;;;1.10;99.90;;;;;;5065351;28;20029;-60
2023/01/20 05:43:31;;;;;;;64.68;26.27;;;0.50;99.90;;;;;;5060899;28;20029;-64
2023/01/20 05:45:57;;;;;;;62.85;25.95;;;0.50;99.90;;;;;;5066114;28;20407;-64
2023/01/20 05:48:23;;;;;;;60.50;22.83;;;0.50;99.90;;;;;;5065187;28;20036;-64
2023/01/20 05:50:48;;;;;;;60.90;24.13;;;0.40;99.90;;;;;;5065055;28;20033;-63
2023/01/20 05:53:15;;;;;;;64.85;24.88;;;0.40;99.90;;;;;;5065529;28;20042;-67
2023/01/20 05:55:41;;;;;;;60.83;25.55;;;0.40;99.90;;;;;;5064774;28;20009;-65
2023/01/20 05:58:07;;;;;;;72.05;27.25;;;0.30;99.90;;;;;;5052805;28;20021;-62
2023/01/20 06:00:33;;;;;;;72.80;26.95;;;0.20;99.90;;;;;;5065577;28;20051;-64
2023/01/20 06:02:59;;;;;;;77.15;26.65;;;0.10;99.90;;;;;;5064707;28;20048;-62
2023/01/20 06:05:25;;;;;;;67.13;26.33;;;0.20;99.90;;;;;;5065774;28;20056;-65
2023/01/20 06:07:50;;;;;;;82.20;27.48;;;0.80;99.90;;;;;;5064992;28;20013;-65
2023/01/20 06:10:16;;;;;;;69.30;26.85;;;0.20;99.90;;;;;;5063644;28;20043;-62
2023/01/20 06:12:42;;;;;;;80.90;28.50;;;0.10;99.90;;;;;;5046066;28;20028;-64
2023/01/20 06:15:09;;;;;;;82.28;29.85;;;0.10;99.90;;;;;;5063927;28;20441;-65
2023/01/20 06:17:35;;;;;;;73.28;29.00;;;0.10;99.90;;;;;;5068036;28;20032;-63
2023/01/20 06:20:01;;;;;;;73.75;27.20;;;0.10;99.90;;;;;;5069200;28;20038;-65
2023/01/20 06:22:26;;;;;;;73.00;27.55;;;0.10;99.90;;;;;;5067945;28;20419;-64
2023/01/20 06:24:52;;;;;;;74.53;29.20;;;0.10;99.90;;;;;;5069079;28;20032;-64
2023/01/20 06:27:18;;;;;;;80.57;29.42;;;0.50;99.90;;;;;;5067992;28;20569;-65
2023/01/20 06:29:44;;;;;;;71.32;26.63;;;0.20;99.90;;;;;;5067973;28;20032;-63
2023/01/20 06:32:10;;;;;;;78.90;28.58;;;0.20;99.90;;;;;;5069000;28;20074;-61
2023/01/20 06:34:36;;;;;;;69.80;27.95;;;0.70;99.90;;;;;;5068291;28;20024;-63
2023/01/20 06:37:01;;;;;;;76.95;27.52;;;0.20;99.90;;;;;;5074774;28;20093;-62
2023/01/20 06:39:27;;;;;;;77.53;30.20;;;0.30;99.90;;;;;;5058202;28;20124;-61
2023/01/20 06:41:57;;;;;;;80.10;28.23;;;0.30;99.90;;;;;;5067953;28;20028;-64
2023/01/20 06:44:23;;;;;;;64.95;25.63;;;0.30;99.90;;;;;;5067809;28;20522;-62
2023/01/20 06:46:50;;;;;;;83.22;27.02;;;0.30;99.90;;;;;;5068853;28;20031;-65
2023/01/20 06:49:16;;;;;;;79.22;27.88;;;0.20;99.90;;;;;;5067599;28;20032;-64
2023/01/20 06:51:42;;;;;;;74.07;26.63;;;0.20;99.90;;;;;;5068392;28;20098;-62
2023/01/20 06:54:08;;;;;;;66.07;25.27;;;0.20;99.90;;;;;;5068266;28;20029;-64
2023/01/20 06:56:34;;;;;;;74.13;25.45;;;0.30;99.90;;;;;;5068029;28;20020;-65
2023/01/20 06:59:00;;;;;;;67.50;23.63;;;0.30;99.90;;;;;;5068660;28;20043;-66
2023/01/20 07:01:28;;;;;;;74.00;28.35;;;0.30;99.90;;;;;;5068206;28;20040;-65
2023/01/20 07:03:54;;;;;;;75.05;26.20;;;0.20;99.90;;;;;;5049714;28;20040;-62
2023/01/20 07:06:33;;;;;;;71.78;27.58;;;0.10;99.90;;;;;;5068423;28;20096;-64
2023/01/20 07:08:59;;;;;;;77.30;28.63;;;0.00;99.90;;;;;;5068022;28;20496;-63
2023/01/20 07:11:26;;;;;;;69.25;25.45;;;0.00;99.90;;;;;;5067672;28;20500;-63
2023/01/20 07:13:52;;;;;;;73.35;25.65;;;0.10;99.90;;;;;;5067745;28;20028;-61
2023/01/20 07:16:17;;;;;;;68.95;26.85;;;0.10;99.90;;;;;;5068228;28;20017;-63
2023/01/20 07:18:47;;;;;;;68.63;25.80;;;0.10;99.90;;;;;;5066904;28;20064;-63
2023/01/20 07:21:12;;;;;;;90.03;34.20;;;0.00;99.90;;;;;;5067866;28;20021;-59
2023/01/20 07:23:38;;;;;;;75.63;28.23;;;0.00;99.90;;;;;;5067072;28;20051;-65
2023/01/20 07:26:06;;;;;;;72.18;27.67;;;0.10;99.90;;;;;;5067338;28;20121;-65
2023/01/20 07:28:33;;;;;;;75.72;27.60;;;0.20;99.90;;;;;;5066317;28;20648;-61
2023/01/20 07:31:22;;;;;;;89.65;28.27;;;0.20;99.90;;;;;;5067356;28;20384;-62
2023/01/20 07:33:48;;;;;;;70.50;25.45;;;0.20;99.90;;;;;;5066586;28;20543;-64
2023/01/20 07:36:15;;;;;;;74.97;27.73;;;0.20;99.90;;;;;;5066890;28;20025;-64
2023/01/20 07:38:41;;;;;;;73.63;27.42;;;0.50;99.90;;;;;;5070597;28;20024;-64
2023/01/20 07:41:14;;;;;;;73.35;27.35;;;0.10;99.90;;;;;;5067967;28;20052;-62
2023/01/20 07:43:41;;;;;;;72.60;27.38;;;0.10;99.90;;;;;;5066920;28;20055;-63
2023/01/20 07:46:06;;;;;;;85.07;28.50;;;0.20;99.90;;;;;;5048662;28;20510;-64
2023/01/20 07:48:32;;;;;;;75.18;25.60;;;0.20;99.90;;;;;;5067224;28;20024;-60
2023/01/20 07:51:06;;;;;;;71.72;25.88;;;0.10;99.90;;;;;;5067385;28;20027;-60
2023/01/20 07:53:37;;;;;;;77.93;26.75;;;0.00;99.90;;;;;;5065962;28;20024;-65
2023/01/20 07:56:09;;;;;;;78.97;27.88;;;0.00;99.90;;;;;;5066566;28;20025;-63
2023/01/20 07:58:35;;;;;;;85.57;28.55;;;0.00;99.90;;;;;;5066854;28;20025;-61
2023/01/20 08:01:16;;;;;;;89.45;28.38;;;-0.10;99.90;;;;;;5068285;28;20028;-64
2023/01/20 08:03:43;;;;;;;80.60;29.23;;;0.00;99.90;;;;;;5067277;28;20079;-60
2023/01/20 08:06:11;;;;;;;72.80;27.40;;;0.00;99.90;;;;;;5066495;28;20026;-64
2023/01/20 08:08:37;;;;;;;85.38;27.95;;;0.00;99.90;;;;;;5049456;28;20032;-61
2023/01/20 08:11:04;;;;;;;76.22;28.27;;;0.50;99.90;;;;;;5067524;28;20032;-64
2023/01/20 08:13:31;;;;;;;97.88;31.38;;;0.00;99.90;;;;;;5066360;28;20050;-65
2023/01/20 08:16:02;;;;;;;93.32;30.65;;;0.00;99.90;;;;;;5067499;28;20413;-60
2023/01/20 08:18:28;;;;;;;83.35;28.67;;;0.00;99.90;;;;;;5086528;22;20217;-60
2023/01/20 08:20:54;;;;;;;83.65;27.30;;;0.20;99.90;;;;;;5086599;28;20032;-61
2023/01/20 08:23:19;;;;;;;94.38;31.20;;;0.10;99.90;;;;;;5086321;28;20028;-59
2023/01/20 08:25:45;;;;;;;90.90;29.95;;;0.10;99.90;;;;;;5087334;28;20032;-63
2023/01/20 08:28:11;;;;;;;91.15;29.33;;;0.10;99.90;;;;;;5084354;28;20442;-61
2023/01/20 08:30:37;;;;;;;82.88;27.92;;;0.10;99.90;;;;;;5062083;28;20028;-63
2023/01/20 08:33:03;;;;;;;94.05;28.95;;;0.60;99.90;;;;;;5069741;28;20025;-63
2023/01/20 08:35:29;;;;;;;86.68;27.50;;;0.20;99.90;;;;;;5068157;28;20560;-61
2023/01/20 08:37:54;;;;;;;84.15;26.70;;;0.10;99.90;;;;;;5068850;28;20024;-59
2023/01/20 08:40:20;;;;;;;83.72;29.95;;;0.00;99.90;;;;;;5060434;28;20115;-61
2023/01/20 08:42:46;;;;;;;90.10;31.42;;;-2.10;99.90;;;;;;5061353;28;20033;-61
2023/01/20 08:45:11;;;;;;;80.90;28.65;;;0.20;99.90;;;;;;5056377;28;20025;-61
2023/01/20 08:47:43;;;;;;;80.30;26.83;;;0.80;99.90;;;;;;5062113;28;20475;-62
2023/01/20 08:50:10;;;;;;;73.45;24.52;;;0.30;99.90;;;;;;5043857;28;20116;-60
2023/01/20 08:52:35;;;;;;;77.43;26.65;;;0.40;99.90;;;;;;5064020;28;20017;-64
2023/01/20 08:55:01;;;;;;;76.90;27.00;;;0.40;99.90;;;;;;5068375;28;20134;-62
2023/01/20 08:57:27;;;;;;;90.10;27.90;;;0.50;99.90;;;;;;5067463;28;20021;-62
2023/01/20 08:59:53;;;;;;;91.90;29.38;;;0.50;99.90;;;;;;5067588;28;20035;-60
2023/01/20 09:02:19;;;;;;;77.88;28.70;;;0.60;99.90;;;;;;5067816;28;20029;-55
2023/01/20 09:04:45;;;;;;;97.05;32.40;;;0.60;99.90;;;;;;5065609;28;20032;-60
2023/01/20 09:07:11;;;;;;;97.97;33.92;;;0.50;99.90;;;;;;5064744;28;20078;-63
2023/01/20 09:09:37;;;;;;;95.60;34.97;;;0.50;99.90;;;;;;5067116;28;20052;-57
2023/01/20 09:12:05;;;;;;;87.15;31.38;;;0.60;99.90;;;;;;5067070;28;20039;-62
2023/01/20 09:14:31;;;;;;;89.68;31.67;;;0.70;99.90;;;;;;5067456;28;20051;-61
2023/01/20 09:16:57;;;;;;;107.45;34.38;;;1.40;99.90;;;;;;5067554;28;20513;-61
2023/01/20 09:19:22;;;;;;;102.10;31.75;;;0.90;99.90;;;;;;5067888;28;20036;-64
2023/01/20 09:21:48;;;;;;;81.60;31.95;;;0.80;99.90;;;;;;5067582;28;20341;-61
2023/01/20 09:24:14;;;;;;;82.20;30.65;;;0.90;99.90;;;;;;5067787;28;20028;-61
2023/01/20 09:26:40;;;;;;;96.05;32.53;;;0.90;99.90;;;;;;5066989;28;20036;-58
2023/01/20 09:29:12;;;;;;;87.55;33.22;;;1.00;99.90;;;;;;5067245;28;20020;-65
2023/01/20 09:31:52;;;;;;;87.63;32.80;;;1.00;99.90;;;;;;5066715;28;20033;-63
2023/01/20 09:34:23;;;;;;;88.32;32.10;;;1.00;99.90;;;;;;5059903;28;20153;-60
2023/01/20 09:45:49;;;;;;;93.35;35.42;;;1.00;99.90;;;;;;5058280;28;20035;-61
2023/01/20 09:54:32;;;;;;;89.88;34.53;;;1.10;99.90;;;;;;5062093;28;20576;-60
2023/01/20 09:57:01;;;;;;;102.68;34.97;;;1.00;99.90;;;;;;5059956;28;20032;-63
2023/01/20 09:59:35;;;;;;;95.03;33.85;;;1.00;99.90;;;;;;5061797;28;20559;-63
2023/01/20 10:02:06;;;;;;;93.43;35.92;;;1.00;99.90;;;;;;5057350;28;20040;-63
2023/01/20 10:04:36;;;;;;;94.53;36.97;;;1.20;99.90;;;;;;5060925;28;20490;-63
2023/01/20 10:07:11;;;;;;;94.35;35.13;;;1.20;99.90;;;;;;5061909;28;20474;-62
2023/01/20 10:09:40;;;;;;;102.47;36.05;;;1.30;99.90;;;;;;5060645;28;20036;-60
2023/01/20 10:12:32;;;;;;;93.93;35.88;;;1.30;99.90;;;;;;5062592;28;20028;-57
2023/01/20 10:15:07;;;;;;;94.07;36.30;;;1.20;99.90;;;;;;5038582;28;20028;-64
2023/01/20 10:17:39;;;;;;;98.05;38.25;;;1.30;99.90;;;;;;5060407;28;20420;-61
2023/01/20 10:20:08;;;;;;;92.75;34.50;;;1.40;99.90;;;;;;5060292;28;20273;-63
2023/01/20 10:22:43;;;;;;;87.78;34.05;;;1.40;99.90;;;;;;5064819;28;20032;-62
2023/01/20 10:25:30;;;;;;;89.50;33.00;;;1.30;99.90;;;;;;5049925;28;20085;-55
2023/01/20 10:28:09;;;;;;;94.45;34.83;;;1.40;99.90;;;;;;5067028;28;20025;-60
2023/01/20 10:30:37;;;;;;;95.07;35.40;;;1.30;99.90;;;;;;5067645;28;20041;-58
2023/01/20 10:33:20;;;;;;;91.78;33.95;;;1.30;99.90;;;;;;5069065;28;20086;-61
2023/01/20 10:35:51;;;;;;;99.22;35.75;;;1.40;99.90;;;;;;5070293;28;20407;-62
2023/01/20 10:38:33;;;;;;;93.10;36.22;;;1.50;99.90;;;;;;5067391;28;20033;-65
2023/01/20 10:41:24;;;;;;;92.53;32.80;;;1.50;99.90;;;;;;5068604;28;20070;-62
2023/01/20 10:43:49;;;;;;;90.55;33.95;;;1.60;99.90;;;;;;5070364;28;20037;-63
2023/01/20 10:46:44;;;;;;;95.47;34.72;;;0.20;99.90;;;;;;5045309;28;20051;-60
2023/01/20 10:49:31;;;;;;;87.10;33.83;;;1.80;99.90;;;;;;5045789;28;20602;-63
2023/01/20 10:52:33;;;;;;;89.72;34.70;;;1.80;99.90;;;;;;5065480;28;20013;-62
2023/01/20 10:55:17;;;;;;;91.47;34.30;;;1.70;99.90;;;;;;5059798;28;20111;-62
2023/01/20 10:57:47;;;;;;;89.38;33.03;;;1.70;99.90;;;;;;5065431;28;20082;-61
2023/01/20 11:00:40;;;;;;;88.68;33.78;;;1.60;99.90;;;;;;5070898;28;20285;-59
2023/01/20 11:03:10;;;;;;;86.90;33.75;;;1.50;99.90;;;;;;5063765;28;20052;-68
2023/01/20 11:05:37;;;;;;;96.43;36.30;;;1.60;99.90;;;;;;5066557;28;20070;-64
2023/01/20 11:08:20;;;;;;;90.28;36.28;;;1.80;99.90;;;;;;5069870;28;20041;-63
2023/01/20 11:10:50;;;;;;;94.65;35.20;;;1.90;99.90;;;;;;5070489;28;20099;-63
2023/01/20 11:13:16;;;;;;;105.32;39.53;;;2.00;99.90;;;;;;5069715;28;20047;-62
2023/01/20 11:15:56;;;;;;;93.65;35.70;;;2.10;99.90;;;;;;5068998;28;20489;-66
2023/01/20 11:18:27;;;;;;;90.07;34.67;;;2.10;99.90;;;;;;5069962;28;20447;-63
2023/01/20 11:20:59;;;;;;;97.32;33.55;;;2.10;99.90;;;;;;5070048;28;20412;-63
2023/01/20 11:23:37;;;;;;;86.43;35.08;;;2.10;99.90;;;;;;5069115;28;20090;-62
2023/01/20 11:26:16;;;;;;;91.50;35.00;;;2.10;99.90;;;;;;5069528;28;20506;-62
2023/01/20 11:28:53;;;;;;;85.60;33.38;;;1.90;99.90;;;;;;5069928;28;20028;-62
2023/01/20 11:31:20;;;;;;;89.07;34.10;;;2.30;99.90;;;;;;5069704;28;20063;-62
2023/01/20 11:34:00;;;;;;;97.85;35.50;;;1.60;99.90;;;;;;5069509;28;20073;-64
2023/01/20 11:36:27;;;;;;;95.63;35.45;;;1.60;99.90;;;;;;5060643;28;20032;-60
2023/01/20 11:38:55;;;;;;;99.18;35.88;;;1.50;99.90;;;;;;5068533;28;20109;-63
2023/01/20 11:41:25;;;;;;;89.40;35.15;;;1.50;99.90;;;;;;5069933;28;20036;-63
2023/01/20 11:43:56;;;;;;;90.68;35.60;;;1.60;99.90;;;;;;5068836;28;20119;-67
2023/01/20 11:46:25;;;;;;;94.05;34.28;;;1.70;99.90;;;;;;5069637;28;20434;-65
2023/01/20 11:49:14;;;;;;;108.30;36.13;;;1.90;99.90;;;;;;5069270;28;20082;-63
2023/01/20 11:51:45;;;;;;;101.32;35.47;;;1.90;99.90;;;;;;5064269;28;20024;-64
2023/01/20 11:54:15;;;;;;;87.20;34.20;;;2.30;99.90;;;;;;5068732;28;20091;-64
2023/01/20 11:56:44;;;;;;;93.47;34.85;;;2.00;99.90;;;;;;5069782;28;20040;-62
2023/01/20 11:59:21;;;;;;;87.70;35.80;;;1.90;99.90;;;;;;5069053;28;20028;-62
2023/01/20 12:01:56;;;;;;;87.63;33.85;;;2.00;99.90;;;;;;5068817;28;20584;-65
2023/01/20 12:04:47;;;;;;;90.85;36.10;;;1.90;99.90;;;;;;5067504;28;20032;-63
2023/01/20 12:07:18;;;;;;;89.68;35.78;;;1.80;99.90;;;;;;5068682;28;20032;-65
2023/01/20 12:09:48;;;;;;;94.82;35.83;;;1.90;99.90;;;;;;5068746;28;20132;-65
2023/01/20 12:12:31;;;;;;;89.70;35.38;;;1.90;99.90;;;;;;5057916;28;20954;-65
2023/01/20 12:15:04;;;;;;;85.10;33.80;;;1.90;99.90;;;;;;5067970;28;20500;-63
2023/01/20 12:18:11;;;;;;;90.97;33.67;;;1.80;99.90;;;;;;5068866;28;20079;-63
2023/01/20 12:20:57;;;;;;;89.03;34.67;;;1.70;99.90;;;;;;5041472;28;20040;-61
2023/01/20 12:23:47;;;;;;;90.32;35.25;;;1.60;99.90;;;;;;5062416;28;20089;-60
2023/01/20 12:26:15;;;;;;;92.25;35.42;;;1.70;99.90;;;;;;5066688;28;20117;-61
2023/01/20 12:28:53;;;;;;;91.25;36.47;;;1.70;99.90;;;;;;5067069;28;20138;-58
2023/01/20 12:31:22;;;;;;;117.38;36.25;;;2.30;99.90;;;;;;5065747;28;20031;-65
2023/01/20 12:33:54;;;;;;;98.10;37.30;;;1.80;99.90;;;;;;5066640;28;20299;-59
2023/01/20 12:36:52;;;;;;;93.75;36.70;;;1.80;99.90;;;;;;5064863;28;20056;-60
2023/01/20 12:39:42;;;;;;;89.85;34.75;;;1.90;99.90;;;;;;5043047;28;20040;-63
2023/01/20 12:42:13;;;;;;;96.72;34.35;;;1.80;99.90;;;;;;5067443;28;20062;-60
2023/01/20 12:44:48;;;;;;;88.22;35.22;;;1.90;99.90;;;;;;5066715;28;20471;-63
2023/01/20 12:47:32;;;;;;;91.50;34.67;;;2.00;99.90;;;;;;5067460;28;20089;-63
2023/01/20 12:50:13;;;;;;;98.18;36.00;;;2.10;99.90;;;;;;5067098;28;20025;-61
2023/01/20 12:52:57;;;;;;;88.07;34.63;;;2.10;99.90;;;;;;5063647;28;20033;-58
2023/01/20 12:55:42;;;;;;;90.50;34.73;;;2.20;99.90;;;;;;5051048;28;20517;-58
2023/01/20 12:58:41;;;;;;;83.55;34.22;;;2.20;99.90;;;;;;5043277;28;20285;-65
2023/01/20 13:01:34;;;;;;;88.57;36.10;;;2.10;99.90;;;;;;5044290;28;20081;-63
2023/01/20 13:04:45;;;;;;;97.05;35.78;;;2.10;99.90;;;;;;5027375;28;20099;-63
2023/01/20 13:07:49;;;;;;;82.07;34.10;;;2.10;99.90;;;;;;5044156;28;20180;-64
2023/01/20 13:10:52;;;;;;;85.35;34.53;;;2.20;99.90;;;;;;5064755;28;20028;-62